sensor_id;sensor_type;location;lat;lon;timestamp;temperature;humidity
1347;DHT22;667;48.796;9.480;2023-04-24T00:01:22;14.80;80.30
1347;DHT22;667;48.796;9.480;2023-04-24T00:03:47;14.80;80.40
1347;DHT22;667;48.796;9.480;2023-04-24T00:06:13;14.80;80.40
1347;DHT22;667;48.796;9.480;2023-04-24T00:08:38;14.80;79.80
1347;DHT22;667;48.796;9.480;2023-04-24T00:11:04;14.70;79.20
1347;DHT22;667;48.796;9.480;2023-04-24T00:13:30;14.80;79.20
1347;DHT22;667;48.796;9.480;2023-04-24T00:15:55;14.80;78.70
1347;DHT22;667;48.796;9.480;2023-04-24T00:18:21;14.80;78.90
1347;DHT22;667;48.796;9.480;2023-04-24T00:20:47;14.80;78.00
1347;DHT22;667;48.796;9.480;2023-04-24T00:23:12;14.80;78.50
1347;DHT22;667;48.796;9.480;2023-04-24T00:25:38;14.70;78.60
1347;DHT22;667;48.796;9.480;2023-04-24T00:28:05;14.70;78.80
1347;DHT22;667;48.796;9.480;2023-04-24T00:30:31;14.80;78.80
1347;DHT22;667;48.796;9.480;2023-04-24T00:32:57;14.80;78.80
1347;DHT22;667;48.796;9.480;2023-04-24T00:35:23;14.80;79.00
1347;DHT22;667;48.796;9.480;2023-04-24T00:37:48;14.80;79.00
1347;DHT22;667;48.796;9.480;2023-04-24T00:40:15;14.80;78.70
1347;DHT22;667;48.796;9.480;2023-04-24T00:42:41;14.80;78.70
1347;DHT22;667;48.796;9.480;2023-04-24T00:45:07;14.80;78.50
1347;DHT22;667;48.796;9.480;2023-04-24T00:47:33;14.80;78.20
1347;DHT22;667;48.796;9.480;2023-04-24T00:50:02;14.80;78.10
1347;DHT22;667;48.796;9.480;2023-04-24T00:52:28;14.80;77.90
1347;DHT22;667;48.796;9.480;2023-04-24T00:54:56;14.80;79.00
1347;DHT22;667;48.796;9.480;2023-04-24T00:57:22;14.80;78.60
1347;DHT22;667;48.796;9.480;2023-04-24T00:59:49;14.80;78.80
1347;DHT22;667;48.796;9.480;2023-04-24T01:02:15;14.80;78.60
1347;DHT22;667;48.796;9.480;2023-04-24T01:04:41;14.80;78.30
1347;DHT22;667;48.796;9.480;2023-04-24T01:07:06;14.80;78.50
1347;DHT22;667;48.796;9.480;2023-04-24T01:09:40;14.80;78.50
1347;DHT22;667;48.796;9.480;2023-04-24T01:12:07;14.80;78.70
1347;DHT22;667;48.796;9.480;2023-04-24T01:14:33;14.80;78.40
1347;DHT22;667;48.796;9.480;2023-04-24T01:16:59;14.80;77.60
1347;DHT22;667;48.796;9.480;2023-04-24T01:19:24;14.80;78.00
1347;DHT22;667;48.796;9.480;2023-04-24T01:21:51;14.80;78.40
1347;DHT22;667;48.796;9.480;2023-04-24T01:24:19;14.80;77.50
1347;DHT22;667;48.796;9.480;2023-04-24T01:26:45;14.80;77.30
1347;DHT22;667;48.796;9.480;2023-04-24T01:29:11;14.70;77.00
1347;DHT22;667;48.796;9.480;2023-04-24T01:31:37;14.70;77.00
1347;DHT22;667;48.796;9.480;2023-04-24T01:34:03;14.80;76.80
1347;DHT22;667;48.796;9.480;2023-04-24T01:36:30;14.80;76.30
1347;DHT22;667;48.796;9.480;2023-04-24T01:38:57;14.80;76.20
1347;DHT22;667;48.796;9.480;2023-04-24T01:41:23;14.70;75.70
1347;DHT22;667;48.796;9.480;2023-04-24T01:43:49;14.80;75.60
1347;DHT22;667;48.796;9.480;2023-04-24T01:46:15;14.70;75.80
1347;DHT22;667;48.796;9.480;2023-04-24T01:48:41;14.70;74.80
1347;DHT22;667;48.796;9.480;2023-04-24T01:51:07;14.70;74.60
1347;DHT22;667;48.796;9.480;2023-04-24T01:53:32;14.70;74.60
1347;DHT22;667;48.796;9.480;2023-04-24T01:55:58;14.70;74.80
1347;DHT22;667;48.796;9.480;2023-04-24T01:58:24;14.70;75.00
1347;DHT22;667;48.796;9.480;2023-04-24T02:00:50;14.70;75.10
1347;DHT22;667;48.796;9.480;2023-04-24T02:03:15;14.70;75.10
1347;DHT22;667;48.796;9.480;2023-04-24T02:05:44;14.70;75.10
1347;DHT22;667;48.796;9.480;2023-04-24T02:08:10;14.70;75.10
1347;DHT22;667;48.796;9.480;2023-04-24T02:10:36;14.70;75.40
1347;DHT22;667;48.796;9.480;2023-04-24T02:13:01;14.80;75.70
1347;DHT22;667;48.796;9.480;2023-04-24T02:15:27;14.70;75.70
1347;DHT22;667;48.796;9.480;2023-04-24T02:17:53;14.70;75.70
1347;DHT22;667;48.796;9.480;2023-04-24T02:20:19;14.70;75.70
1347;DHT22;667;48.796;9.480;2023-04-24T02:22:44;14.70;75.30
1347;DHT22;667;48.796;9.480;2023-04-24T02:25:10;14.70;74.80
1347;DHT22;667;48.796;9.480;2023-04-24T02:27:36;14.60;74.30
1347;DHT22;667;48.796;9.480;2023-04-24T02:30:01;14.70;74.20
1347;DHT22;667;48.796;9.480;2023-04-24T02:32:28;14.70;74.20
1347;DHT22;667;48.796;9.480;2023-04-24T02:34:53;14.60;74.30
1347;DHT22;667;48.796;9.480;2023-04-24T02:37:19;14.60;74.50
1347;DHT22;667;48.796;9.480;2023-04-24T02:39:45;14.60;74.40
1347;DHT22;667;48.796;9.480;2023-04-24T02:42:10;14.60;74.60
1347;DHT22;667;48.796;9.480;2023-04-24T02:44:36;14.70;74.80
1347;DHT22;667;48.796;9.480;2023-04-24T02:47:01;14.60;74.90
1347;DHT22;667;48.796;9.480;2023-04-24T02:49:27;14.60;75.30
1347;DHT22;667;48.796;9.480;2023-04-24T02:51:52;14.70;75.70
1347;DHT22;667;48.796;9.480;2023-04-24T02:54:18;14.70;76.00
1347;DHT22;667;48.796;9.480;2023-04-24T02:56:43;14.70;76.30
1347;DHT22;667;48.796;9.480;2023-04-24T02:59:09;14.60;76.50
1347;DHT22;667;48.796;9.480;2023-04-24T03:01:35;14.60;76.40
1347;DHT22;667;48.796;9.480;2023-04-24T03:04:01;14.70;76.30
1347;DHT22;667;48.796;9.480;2023-04-24T03:06:27;14.70;76.30
1347;DHT22;667;48.796;9.480;2023-04-24T03:08:53;14.70;76.70
1347;DHT22;667;48.796;9.480;2023-04-24T03:11:19;14.70;76.90
1347;DHT22;667;48.796;9.480;2023-04-24T03:13:45;14.70;76.40
1347;DHT22;667;48.796;9.480;2023-04-24T03:16:11;14.60;75.60
1347;DHT22;667;48.796;9.480;2023-04-24T03:18:36;14.60;75.40
1347;DHT22;667;48.796;9.480;2023-04-24T03:21:02;14.70;75.70
1347;DHT22;667;48.796;9.480;2023-04-24T03:23:28;14.60;75.60
1347;DHT22;667;48.796;9.480;2023-04-24T03:25:54;14.60;75.70
1347;DHT22;667;48.796;9.480;2023-04-24T03:28:20;14.60;75.90
1347;DHT22;667;48.796;9.480;2023-04-24T03:30:46;14.60;76.20
1347;DHT22;667;48.796;9.480;2023-04-24T03:33:11;14.60;76.60
1347;DHT22;667;48.796;9.480;2023-04-24T03:35:37;14.60;77.30
1347;DHT22;667;48.796;9.480;2023-04-24T03:38:02;14.60;77.90
1347;DHT22;667;48.796;9.480;2023-04-24T03:40:29;14.60;78.40
1347;DHT22;667;48.796;9.480;2023-04-24T03:42:55;14.60;78.80
1347;DHT22;667;48.796;9.480;2023-04-24T03:45:21;14.60;79.10
1347;DHT22;667;48.796;9.480;2023-04-24T03:47:46;14.50;79.10
1347;DHT22;667;48.796;9.480;2023-04-24T03:50:12;14.60;79.00
1347;DHT22;667;48.796;9.480;2023-04-24T03:52:37;14.50;78.70
1347;DHT22;667;48.796;9.480;2023-04-24T03:55:03;14.50;78.90
1347;DHT22;667;48.796;9.480;2023-04-24T03:57:29;14.50;79.20
1347;DHT22;667;48.796;9.480;2023-04-24T03:59:54;14.50;79.50
1347;DHT22;667;48.796;9.480;2023-04-24T04:02:20;14.50;78.90
1347;DHT22;667;48.796;9.480;2023-04-24T04:04:46;14.50;79.00
1347;DHT22;667;48.796;9.480;2023-04-24T04:07:12;14.40;79.30
1347;DHT22;667;48.796;9.480;2023-04-24T04:09:38;14.50;79.70
1347;DHT22;667;48.796;9.480;2023-04-24T04:12:03;14.40;79.70
1347;DHT22;667;48.796;9.480;2023-04-24T04:14:29;14.40;79.80
1347;DHT22;667;48.796;9.480;2023-04-24T04:16:55;14.50;80.10
1347;DHT22;667;48.796;9.480;2023-04-24T04:19:20;14.40;80.20
1347;DHT22;667;48.796;9.480;2023-04-24T04:21:46;14.40;80.10
1347;DHT22;667;48.796;9.480;2023-04-24T04:24:19;14.40;80.20
1347;DHT22;667;48.796;9.480;2023-04-24T04:26:46;14.40;80.30
1347;DHT22;667;48.796;9.480;2023-04-24T04:29:13;14.40;80.40
1347;DHT22;667;48.796;9.480;2023-04-24T04:31:38;14.30;80.10
1347;DHT22;667;48.796;9.480;2023-04-24T04:34:04;14.30;79.80
1347;DHT22;667;48.796;9.480;2023-04-24T04:36:30;14.30;79.80
1347;DHT22;667;48.796;9.480;2023-04-24T04:38:55;14.30;79.90
1347;DHT22;667;48.796;9.480;2023-04-24T04:41:22;14.30;79.90
1347;DHT22;667;48.796;9.480;2023-04-24T04:43:47;14.30;79.80
1347;DHT22;667;48.796;9.480;2023-04-24T04:46:13;14.30;79.80
1347;DHT22;667;48.796;9.480;2023-04-24T04:48:39;14.30;79.70
1347;DHT22;667;48.796;9.480;2023-04-24T04:51:05;14.30;79.50
1347;DHT22;667;48.796;9.480;2023-04-24T04:53:30;14.20;79.40
1347;DHT22;667;48.796;9.480;2023-04-24T04:55:56;14.20;79.80
1347;DHT22;667;48.796;9.480;2023-04-24T04:58:22;14.10;78.50
1347;DHT22;667;48.796;9.480;2023-04-24T05:00:47;14.00;78.30
1347;DHT22;667;48.796;9.480;2023-04-24T05:03:13;13.90;78.60
1347;DHT22;667;48.796;9.480;2023-04-24T05:05:39;13.90;78.50
1347;DHT22;667;48.796;9.480;2023-04-24T05:08:07;13.80;78.60
1347;DHT22;667;48.796;9.480;2023-04-24T05:10:32;13.80;78.40
1347;DHT22;667;48.796;9.480;2023-04-24T05:12:58;13.70;78.30
1347;DHT22;667;48.796;9.480;2023-04-24T05:15:23;13.70;78.20
1347;DHT22;667;48.796;9.480;2023-04-24T05:17:49;13.60;78.00
1347;DHT22;667;48.796;9.480;2023-04-24T05:20:15;13.60;78.10
1347;DHT22;667;48.796;9.480;2023-04-24T05:22:41;13.60;78.60
1347;DHT22;667;48.796;9.480;2023-04-24T05:25:06;13.60;78.80
1347;DHT22;667;48.796;9.480;2023-04-24T05:27:33;13.60;78.90
1347;DHT22;667;48.796;9.480;2023-04-24T05:29:58;13.60;78.90
1347;DHT22;667;48.796;9.480;2023-04-24T05:32:24;13.60;78.80
1347;DHT22;667;48.796;9.480;2023-04-24T05:34:50;13.60;78.40
1347;DHT22;667;48.796;9.480;2023-04-24T05:37:15;13.60;78.90
1347;DHT22;667;48.796;9.480;2023-04-24T05:39:41;13.60;79.50
1347;DHT22;667;48.796;9.480;2023-04-24T05:42:07;13.60;79.60
1347;DHT22;667;48.796;9.480;2023-04-24T05:44:32;13.60;78.90
1347;DHT22;667;48.796;9.480;2023-04-24T05:46:58;13.60;78.70
1347;DHT22;667;48.796;9.480;2023-04-24T05:49:23;13.60;78.00
1347;DHT22;667;48.796;9.480;2023-04-24T05:51:49;13.50;77.60
1347;DHT22;667;48.796;9.480;2023-04-24T05:54:15;13.50;77.70
1347;DHT22;667;48.796;9.480;2023-04-24T05:56:40;13.50;77.70
1347;DHT22;667;48.796;9.480;2023-04-24T05:59:06;13.50;77.40
1347;DHT22;667;48.796;9.480;2023-04-24T06:01:32;13.40;77.20
1347;DHT22;667;48.796;9.480;2023-04-24T06:03:58;13.40;77.30
1347;DHT22;667;48.796;9.480;2023-04-24T06:06:24;13.30;76.90
1347;DHT22;667;48.796;9.480;2023-04-24T06:08:49;13.40;77.50
1347;DHT22;667;48.796;9.480;2023-04-24T06:11:15;13.40;77.60
1347;DHT22;667;48.796;9.480;2023-04-24T06:13:41;13.40;77.90
1347;DHT22;667;48.796;9.480;2023-04-24T06:16:07;13.40;77.80
1347;DHT22;667;48.796;9.480;2023-04-24T06:18:32;13.50;78.00
1347;DHT22;667;48.796;9.480;2023-04-24T06:20:58;13.50;78.30
1347;DHT22;667;48.796;9.480;2023-04-24T06:23:23;13.60;79.00
1347;DHT22;667;48.796;9.480;2023-04-24T06:25:49;13.70;79.60
1347;DHT22;667;48.796;9.480;2023-04-24T06:28:15;13.70;79.60
1347;DHT22;667;48.796;9.480;2023-04-24T06:30:41;13.70;79.30
1347;DHT22;667;48.796;9.480;2023-04-24T06:33:06;13.80;79.20
1347;DHT22;667;48.796;9.480;2023-04-24T06:35:32;13.80;78.50
1347;DHT22;667;48.796;9.480;2023-04-24T06:37:58;13.80;78.30
1347;DHT22;667;48.796;9.480;2023-04-24T06:40:23;13.80;78.10
1347;DHT22;667;48.796;9.480;2023-04-24T06:42:49;13.90;78.50
1347;DHT22;667;48.796;9.480;2023-04-24T06:45:15;13.90;78.30
1347;DHT22;667;48.796;9.480;2023-04-24T06:47:41;13.90;78.00
1347;DHT22;667;48.796;9.480;2023-04-24T06:50:06;14.00;78.10
1347;DHT22;667;48.796;9.480;2023-04-24T06:52:32;14.20;78.60
1347;DHT22;667;48.796;9.480;2023-04-24T06:55:02;14.30;78.80
1347;DHT22;667;48.796;9.480;2023-04-24T06:57:28;14.40;79.60
1347;DHT22;667;48.796;9.480;2023-04-24T06:59:53;14.60;78.90
1347;DHT22;667;48.796;9.480;2023-04-24T07:02:19;14.70;78.40
1347;DHT22;667;48.796;9.480;2023-04-24T07:04:45;14.80;77.80
1347;DHT22;667;48.796;9.480;2023-04-24T07:07:13;15.00;76.50
1347;DHT22;667;48.796;9.480;2023-04-24T07:09:40;15.00;76.00
1347;DHT22;667;48.796;9.480;2023-04-24T07:12:08;15.20;76.70
1347;DHT22;667;48.796;9.480;2023-04-24T07:14:33;15.40;75.90
1347;DHT22;667;48.796;9.480;2023-04-24T07:16:59;15.50;75.20
1347;DHT22;667;48.796;9.480;2023-04-24T07:19:25;15.60;72.70
1347;DHT22;667;48.796;9.480;2023-04-24T07:21:50;15.70;72.00
1347;DHT22;667;48.796;9.480;2023-04-24T07:24:16;15.80;72.30
1347;DHT22;667;48.796;9.480;2023-04-24T07:26:41;15.80;71.70
1347;DHT22;667;48.796;9.480;2023-04-24T07:29:07;15.90;70.60
1347;DHT22;667;48.796;9.480;2023-04-24T07:31:33;16.00;70.00
1347;DHT22;667;48.796;9.480;2023-04-24T07:33:58;16.00;67.80
1347;DHT22;667;48.796;9.480;2023-04-24T07:36:24;16.00;67.20
1347;DHT22;667;48.796;9.480;2023-04-24T07:38:51;16.10;67.10
1347;DHT22;667;48.796;9.480;2023-04-24T07:41:17;16.10;66.90
1347;DHT22;667;48.796;9.480;2023-04-24T07:43:44;16.00;65.70
1347;DHT22;667;48.796;9.480;2023-04-24T07:46:09;16.00;66.20
1347;DHT22;667;48.796;9.480;2023-04-24T07:48:35;15.90;65.60
1347;DHT22;667;48.796;9.480;2023-04-24T07:51:01;15.80;66.40
1347;DHT22;667;48.796;9.480;2023-04-24T07:53:27;15.70;66.60
1347;DHT22;667;48.796;9.480;2023-04-24T07:55:54;15.50;66.60
1347;DHT22;667;48.796;9.480;2023-04-24T07:58:20;15.50;66.90
1347;DHT22;667;48.796;9.480;2023-04-24T08:00:46;15.40;68.00
1347;DHT22;667;48.796;9.480;2023-04-24T08:03:12;15.30;66.70
1347;DHT22;667;48.796;9.480;2023-04-24T08:05:38;15.30;67.00
1347;DHT22;667;48.796;9.480;2023-04-24T08:08:04;15.30;67.60
1347;DHT22;667;48.796;9.480;2023-04-24T08:10:29;15.50;67.30
1347;DHT22;667;48.796;9.480;2023-04-24T08:12:55;15.60;66.40
1347;DHT22;667;48.796;9.480;2023-04-24T08:15:21;15.70;63.70
1347;DHT22;667;48.796;9.480;2023-04-24T08:17:47;15.80;61.50
1347;DHT22;667;48.796;9.480;2023-04-24T08:20:12;15.70;61.50
1347;DHT22;667;48.796;9.480;2023-04-24T08:22:42;15.70;60.70
1347;DHT22;667;48.796;9.480;2023-04-24T08:25:09;15.70;60.70
1347;DHT22;667;48.796;9.480;2023-04-24T08:27:35;15.70;60.30
1347;DHT22;667;48.796;9.480;2023-04-24T08:30:03;15.60;59.20
1347;DHT22;667;48.796;9.480;2023-04-24T08:32:28;15.60;58.50
1347;DHT22;667;48.796;9.480;2023-04-24T08:34:55;15.50;57.70
1347;DHT22;667;48.796;9.480;2023-04-24T08:37:22;15.50;57.30
1347;DHT22;667;48.796;9.480;2023-04-24T08:39:48;15.40;57.60
1347;DHT22;667;48.796;9.480;2023-04-24T08:42:15;15.50;57.50
1347;DHT22;667;48.796;9.480;2023-04-24T08:44:41;15.40;57.00
1347;DHT22;667;48.796;9.480;2023-04-24T08:47:08;15.40;57.40
1347;DHT22;667;48.796;9.480;2023-04-24T08:49:33;15.40;57.40
1347;DHT22;667;48.796;9.480;2023-04-24T08:52:01;15.30;58.10
1347;DHT22;667;48.796;9.480;2023-04-24T08:54:28;15.40;57.90
1347;DHT22;667;48.796;9.480;2023-04-24T08:56:54;15.60;58.80
1347;DHT22;667;48.796;9.480;2023-04-24T08:59:23;15.70;57.80
1347;DHT22;667;48.796;9.480;2023-04-24T09:01:51;15.80;56.60
1347;DHT22;667;48.796;9.480;2023-04-24T09:04:17;15.80;56.60
1347;DHT22;667;48.796;9.480;2023-04-24T09:06:45;15.90;56.70
1347;DHT22;667;48.796;9.480;2023-04-24T09:09:11;15.90;56.00
1347;DHT22;667;48.796;9.480;2023-04-24T09:11:37;15.90;55.50
1347;DHT22;667;48.796;9.480;2023-04-24T09:14:03;15.80;55.00
1347;DHT22;667;48.796;9.480;2023-04-24T09:16:29;15.80;55.40
1347;DHT22;667;48.796;9.480;2023-04-24T09:18:55;15.80;55.40
1347;DHT22;667;48.796;9.480;2023-04-24T09:21:22;15.80;55.30
1347;DHT22;667;48.796;9.480;2023-04-24T09:24:00;15.70;55.40
1347;DHT22;667;48.796;9.480;2023-04-24T09:26:29;15.60;55.80
1347;DHT22;667;48.796;9.480;2023-04-24T09:28:57;15.60;56.00
1347;DHT22;667;48.796;9.480;2023-04-24T09:31:23;15.60;56.10
1347;DHT22;667;48.796;9.480;2023-04-24T09:33:59;15.50;55.70
1347;DHT22;667;48.796;9.480;2023-04-24T09:39:02;15.40;56.30
1347;DHT22;667;48.796;9.480;2023-04-24T09:41:29;15.40;56.00
1347;DHT22;667;48.796;9.480;2023-04-24T09:43:56;15.40;56.30
1347;DHT22;667;48.796;9.480;2023-04-24T09:46:28;15.30;56.50
1347;DHT22;667;48.796;9.480;2023-04-24T09:48:54;15.20;56.50
1347;DHT22;667;48.796;9.480;2023-04-24T09:51:33;15.20;56.90
1347;DHT22;667;48.796;9.480;2023-04-24T09:53:59;15.10;57.40
1347;DHT22;667;48.796;9.480;2023-04-24T09:56:25;15.10;57.80
1347;DHT22;667;48.796;9.480;2023-04-24T09:58:51;15.10;58.50
1347;DHT22;667;48.796;9.480;2023-04-24T10:01:32;15.10;58.70
1347;DHT22;667;48.796;9.480;2023-04-24T10:03:58;15.20;59.10
1347;DHT22;667;48.796;9.480;2023-04-24T10:06:33;15.40;59.00
1347;DHT22;667;48.796;9.480;2023-04-24T10:08:59;15.50;58.60
1347;DHT22;667;48.796;9.480;2023-04-24T10:11:28;15.60;58.20
1347;DHT22;667;48.796;9.480;2023-04-24T10:13:55;15.70;58.40
1347;DHT22;667;48.796;9.480;2023-04-24T10:16:23;15.90;58.40
1347;DHT22;667;48.796;9.480;2023-04-24T10:18:49;16.10;58.20
1347;DHT22;667;48.796;9.480;2023-04-24T10:21:16;16.10;57.50
1347;DHT22;667;48.796;9.480;2023-04-24T10:23:42;16.10;56.90
1347;DHT22;667;48.796;9.480;2023-04-24T10:26:12;16.00;56.70
1347;DHT22;667;48.796;9.480;2023-04-24T10:28:45;16.00;55.80
1347;DHT22;667;48.796;9.480;2023-04-24T10:31:11;15.80;55.10
1347;DHT22;667;48.796;9.480;2023-04-24T10:33:38;15.80;55.70
1347;DHT22;667;48.796;9.480;2023-04-24T10:36:08;15.70;55.70
1347;DHT22;667;48.796;9.480;2023-04-24T10:38:35;15.70;55.70
1347;DHT22;667;48.796;9.480;2023-04-24T10:41:12;15.60;55.30
1347;DHT22;667;48.796;9.480;2023-04-24T10:43:45;15.60;55.10
1347;DHT22;667;48.796;9.480;2023-04-24T10:46:19;15.60;54.10
1347;DHT22;667;48.796;9.480;2023-04-24T10:48:53;15.60;54.40
1347;DHT22;667;48.796;9.480;2023-04-24T10:51:22;15.80;54.10
1347;DHT22;667;48.796;9.480;2023-04-24T10:53:50;16.00;53.00
1347;DHT22;667;48.796;9.480;2023-04-24T10:56:16;16.10;52.20
1347;DHT22;667;48.796;9.480;2023-04-24T10:59:00;16.10;51.30
1347;DHT22;667;48.796;9.480;2023-04-24T11:01:28;16.20;51.60
1347;DHT22;667;48.796;9.480;2023-04-24T11:03:59;16.20;51.10
1347;DHT22;667;48.796;9.480;2023-04-24T11:09:05;16.20;51.10
1347;DHT22;667;48.796;9.480;2023-04-24T11:11:33;16.20;50.00
1347;DHT22;667;48.796;9.480;2023-04-24T11:19:22;16.00;50.70
1347;DHT22;667;48.796;9.480;2023-04-24T11:29:43;15.70;51.30
1347;DHT22;667;48.796;9.480;2023-04-24T11:34:58;15.60;51.50
1347;DHT22;667;48.796;9.480;2023-04-24T11:37:27;15.70;52.30
1347;DHT22;667;48.796;9.480;2023-04-24T11:39:58;15.70;52.30
1347;DHT22;667;48.796;9.480;2023-04-24T11:42:24;15.60;52.40
1347;DHT22;667;48.796;9.480;2023-04-24T11:44:52;15.70;52.50
1347;DHT22;667;48.796;9.480;2023-04-24T11:47:18;15.60;52.50
1347;DHT22;667;48.796;9.480;2023-04-24T11:49:44;15.50;53.20
1347;DHT22;667;48.796;9.480;2023-04-24T11:52:09;15.50;54.10
1347;DHT22;667;48.796;9.480;2023-04-24T11:54:36;15.40;54.50
1347;DHT22;667;48.796;9.480;2023-04-24T11:57:04;15.40;54.80
1347;DHT22;667;48.796;9.480;2023-04-24T11:59:35;15.40;55.40
1347;DHT22;667;48.796;9.480;2023-04-24T12:02:02;15.50;55.80
1347;DHT22;667;48.796;9.480;2023-04-24T12:04:40;15.50;55.90
1347;DHT22;667;48.796;9.480;2023-04-24T12:07:06;15.60;56.40
1347;DHT22;667;48.796;9.480;2023-04-24T12:09:46;15.70;55.50
1347;DHT22;667;48.796;9.480;2023-04-24T12:12:14;15.80;55.10
1347;DHT22;667;48.796;9.480;2023-04-24T12:17:09;15.80;54.00
1347;DHT22;667;48.796;9.480;2023-04-24T12:19:35;15.80;53.00
1347;DHT22;667;48.796;9.480;2023-04-24T12:22:03;15.70;52.50
1347;DHT22;667;48.796;9.480;2023-04-24T12:24:29;15.60;53.00
1347;DHT22;667;48.796;9.480;2023-04-24T12:26:56;15.60;53.50
1347;DHT22;667;48.796;9.480;2023-04-24T12:29:22;15.50;53.80
1347;DHT22;667;48.796;9.480;2023-04-24T12:31:48;15.50;54.30
1347;DHT22;667;48.796;9.480;2023-04-24T12:34:21;15.50;54.00
1347;DHT22;667;48.796;9.480;2023-04-24T12:36:47;15.60;54.20
1347;DHT22;667;48.796;9.480;2023-04-24T12:39:18;15.60;54.60
1347;DHT22;667;48.796;9.480;2023-04-24T12:42:11;15.70;54.70
1347;DHT22;667;48.796;9.480;2023-04-24T12:44:37;15.80;54.10
1347;DHT22;667;48.796;9.480;2023-04-24T12:47:03;15.80;53.80
1347;DHT22;667;48.796;9.480;2023-04-24T12:49:31;15.90;53.50
1347;DHT22;667;48.796;9.480;2023-04-24T12:51:57;15.90;53.60
1347;DHT22;667;48.796;9.480;2023-04-24T12:54:23;15.80;52.40
1347;DHT22;667;48.796;9.480;2023-04-24T12:56:48;15.70;52.50
1347;DHT22;667;48.796;9.480;2023-04-24T12:59:14;15.70;52.40
1347;DHT22;667;48.796;9.480;2023-04-24T13:01:40;15.60;53.00
1347;DHT22;667;48.796;9.480;2023-04-24T13:04:06;15.60;53.20
1347;DHT22;667;48.796;9.480;2023-04-24T13:06:31;15.50;53.50
1347;DHT22;667;48.796;9.480;2023-04-24T13:08:57;15.50;53.30
1347;DHT22;667;48.796;9.480;2023-04-24T13:11:23;15.50;52.70
1347;DHT22;667;48.796;9.480;2023-04-24T13:13:50;15.50;52.80
1347;DHT22;667;48.796;9.480;2023-04-24T13:16:15;15.50;53.10
1347;DHT22;667;48.796;9.480;2023-04-24T13:18:41;15.50;52.90
1347;DHT22;667;48.796;9.480;2023-04-24T13:21:06;15.60;53.10
1347;DHT22;667;48.796;9.480;2023-04-24T13:23:32;15.60;53.00
1347;DHT22;667;48.796;9.480;2023-04-24T13:25:57;15.60;52.60
1347;DHT22;667;48.796;9.480;2023-04-24T13:28:24;15.60;52.50
1347;DHT22;667;48.796;9.480;2023-04-24T13:30:50;15.60;52.60
1347;DHT22;667;48.796;9.480;2023-04-24T13:33:16;15.50;52.70
1347;DHT22;667;48.796;9.480;2023-04-24T13:35:42;15.50;53.20
1347;DHT22;667;48.796;9.480;2023-04-24T13:38:07;15.50;54.80
1347;DHT22;667;48.796;9.480;2023-04-24T13:40:33;15.40;57.40
1347;DHT22;667;48.796;9.480;2023-04-24T13:42:59;15.30;57.90
1347;DHT22;667;48.796;9.480;2023-04-24T13:45:24;15.20;59.30
1347;DHT22;667;48.796;9.480;2023-04-24T13:47:50;15.20;59.80
1347;DHT22;667;48.796;9.480;2023-04-24T13:50:16;15.20;60.50
1347;DHT22;667;48.796;9.480;2023-04-24T13:52:41;15.30;61.30
1347;DHT22;667;48.796;9.480;2023-04-24T13:55:07;15.40;62.00
1347;DHT22;667;48.796;9.480;2023-04-24T13:57:33;15.50;61.90
1347;DHT22;667;48.796;9.480;2023-04-24T13:59:59;15.60;61.70
1347;DHT22;667;48.796;9.480;2023-04-24T14:02:29;15.70;61.00
1347;DHT22;667;48.796;9.480;2023-04-24T14:04:55;15.70;59.90
1347;DHT22;667;48.796;9.480;2023-04-24T14:07:20;15.70;59.80
1347;DHT22;667;48.796;9.480;2023-04-24T14:09:46;15.80;59.90
1347;DHT22;667;48.796;9.480;2023-04-24T14:12:12;15.80;59.90
1347;DHT22;667;48.796;9.480;2023-04-24T14:14:39;15.80;59.90
1347;DHT22;667;48.796;9.480;2023-04-24T14:17:04;15.80;59.60
1347;DHT22;667;48.796;9.480;2023-04-24T14:19:30;15.80;59.40
1347;DHT22;667;48.796;9.480;2023-04-24T14:21:56;15.70;59.00
1347;DHT22;667;48.796;9.480;2023-04-24T14:24:23;15.50;59.30
1347;DHT22;667;48.796;9.480;2023-04-24T14:26:49;15.30;60.40
1347;DHT22;667;48.796;9.480;2023-04-24T14:29:14;15.10;61.90
1347;DHT22;667;48.796;9.480;2023-04-24T14:31:41;14.90;62.70
1347;DHT22;667;48.796;9.480;2023-04-24T14:34:06;14.70;63.70
1347;DHT22;667;48.796;9.480;2023-04-24T14:36:32;14.70;65.10
1347;DHT22;667;48.796;9.480;2023-04-24T14:38:58;14.70;66.20
1347;DHT22;667;48.796;9.480;2023-04-24T14:41:23;14.70;67.50
1347;DHT22;667;48.796;9.480;2023-04-24T14:43:49;14.70;67.40
1347;DHT22;667;48.796;9.480;2023-04-24T14:46:14;14.70;67.00
1347;DHT22;667;48.796;9.480;2023-04-24T14:48:40;14.70;67.10
1347;DHT22;667;48.796;9.480;2023-04-24T14:51:06;14.70;67.00
1347;DHT22;667;48.796;9.480;2023-04-24T14:53:31;14.80;67.10
1347;DHT22;667;48.796;9.480;2023-04-24T14:55:57;14.80;67.00
1347;DHT22;667;48.796;9.480;2023-04-24T14:58:23;14.80;66.70
1347;DHT22;667;48.796;9.480;2023-04-24T15:00:48;14.80;66.60
1347;DHT22;667;48.796;9.480;2023-04-24T15:03:18;14.80;65.20
1347;DHT22;667;48.796;9.480;2023-04-24T15:05:44;14.80;64.40
1347;DHT22;667;48.796;9.480;2023-04-24T15:08:09;14.90;64.80
1347;DHT22;667;48.796;9.480;2023-04-24T15:10:35;14.90;63.90
1347;DHT22;667;48.796;9.480;2023-04-24T15:13:01;14.90;63.50
1347;DHT22;667;48.796;9.480;2023-04-24T15:15:26;14.90;63.00
1347;DHT22;667;48.796;9.480;2023-04-24T15:17:52;14.80;63.10
1347;DHT22;667;48.796;9.480;2023-04-24T15:20:17;14.80;63.00
1347;DHT22;667;48.796;9.480;2023-04-24T15:22:43;14.80;62.10
1347;DHT22;667;48.796;9.480;2023-04-24T15:25:09;14.70;62.00
1347;DHT22;667;48.796;9.480;2023-04-24T15:27:45;14.70;61.90
1347;DHT22;667;48.796;9.480;2023-04-24T15:30:11;14.80;62.40
1347;DHT22;667;48.796;9.480;2023-04-24T15:32:37;14.80;62.40
1347;DHT22;667;48.796;9.480;2023-04-24T15:35:03;14.90;62.10
1347;DHT22;667;48.796;9.480;2023-04-24T15:37:29;14.80;60.70
1347;DHT22;667;48.796;9.480;2023-04-24T15:39:55;14.80;59.80
1347;DHT22;667;48.796;9.480;2023-04-24T15:42:20;14.80;59.20
1347;DHT22;667;48.796;9.480;2023-04-24T15:44:46;14.80;59.30
1347;DHT22;667;48.796;9.480;2023-04-24T15:47:12;14.80;59.50
1347;DHT22;667;48.796;9.480;2023-04-24T15:49:39;14.70;59.40
1347;DHT22;667;48.796;9.480;2023-04-24T15:52:05;14.70;59.30
1347;DHT22;667;48.796;9.480;2023-04-24T15:54:31;14.70;59.30
1347;DHT22;667;48.796;9.480;2023-04-24T15:56:56;14.70;59.50
1347;DHT22;667;48.796;9.480;2023-04-24T15:59:23;14.80;59.60
1347;DHT22;667;48.796;9.480;2023-04-24T16:01:48;14.80;59.70
1347;DHT22;667;48.796;9.480;2023-04-24T16:04:14;14.80;59.50
1347;DHT22;667;48.796;9.480;2023-04-24T16:06:40;14.80;59.40
1347;DHT22;667;48.796;9.480;2023-04-24T16:09:06;14.80;59.50
1347;DHT22;667;48.796;9.480;2023-04-24T16:11:33;14.80;59.70
1347;DHT22;667;48.796;9.480;2023-04-24T16:14:01;14.70;60.40
1347;DHT22;667;48.796;9.480;2023-04-24T16:16:27;14.60;61.20
1347;DHT22;667;48.796;9.480;2023-04-24T16:18:52;14.50;62.00
1347;DHT22;667;48.796;9.480;2023-04-24T16:21:19;14.40;63.40
1347;DHT22;667;48.796;9.480;2023-04-24T16:23:45;14.40;64.60
1347;DHT22;667;48.796;9.480;2023-04-24T16:26:10;14.30;65.40
1347;DHT22;667;48.796;9.480;2023-04-24T16:28:36;14.30;66.40
1347;DHT22;667;48.796;9.480;2023-04-24T16:31:02;14.30;65.60
1347;DHT22;667;48.796;9.480;2023-04-24T16:33:28;14.30;66.10
1347;DHT22;667;48.796;9.480;2023-04-24T16:35:54;14.30;66.50